MSC Clea — CQID6 — position and weather

sailwx.info

Track history (hours):
 
Tides and Currents Weather Stations Pressure Air Temp Water Temp Dewpoint Dewpoint Depression Visibility Wind Speed Wind Dir Waves Ship Positions

MSC Clea

Last reported at 2017-Oct-04 07:21 UTC. Time now 2017-Oct-18 06:07 UTC.
Position N 26°25' W 114°37'.
Warning: this ship's position is 13 days out of date.

Length 300 m; draft 11 m.

Type: Cargo ship. MMSI: 255805930.

Date/timePositionNaut miles runAvg speedWind from/ knotsBaromVisibWave heightAir tempDewpointWater temp
2017-Oct-04 07:21N 26°25' W 114°37'22617.1
2017-Oct-03 18:07N 29°45' W 116°36'14317.5
2017-Oct-03 09:55N 32°02' W 117°24'717.5
2017-Oct-03 09:30N 32°09' W 117°27'917.3
2017-Oct-03 09:00N 32°17' W 117°30'815.8
2017-Oct-03 08:30N 32°25' W 117°33'611.4
2017-Oct-03 08:01N 32°30' W 117°35'713.1
2017-Oct-03 07:30N 32°36' W 117°39'816.7
2017-Oct-03 07:01N 32°43' W 117°44'816.7
2017-Oct-03 06:30N 32°50' W 117°49'816.9
2017-Oct-03 06:01N 32°58' W 117°53'816.3
2017-Oct-03 05:30N 33°05' W 117°57'611.3
2017-Oct-03 05:00N 33°10' W 118°01'611.4
2017-Oct-03 04:30N 33°15' W 118°04'611.4
2017-Oct-03 04:00N 33°20' W 118°07'611.5
2017-Oct-03 03:30N 33°26' W 118°09'611.5
2017-Oct-03 03:00N 33°31' W 118°12'611.0
2017-Oct-03 02:30N 33°36' W 118°13'510.7
2017-Oct-03 02:00N 33°42' W 118°11'3 6.9
2017-Oct-03 01:30N 33°45' W 118°13'1 1.6
2017-Oct-03 01:00N 33°45' W 118°14'0 0.0
2017-Oct-03 00:28N 33°45' W 118°14'0 0.0
2017-Oct-02 23:49N 33°45' W 118°14'0 0.0
2017-Oct-02 22:19N 33°45' W 118°14'0 0.0
2017-Oct-02 21:55N 33°45' W 118°14'0 0.0
2017-Oct-02 21:25N 33°45' W 118°14'0 0.0
2017-Oct-02 20:55N 33°45' W 118°14'0 0.0
2017-Oct-02 20:25N 33°45' W 118°14'0 0.0
2017-Oct-02 19:55N 33°45' W 118°14'0 0.0
2017-Oct-02 19:19N 33°45' W 118°14'0 0.0
2017-Oct-02 18:55N 33°45' W 118°14'0 0.0
2017-Oct-02 18:25N 33°45' W 118°14'0 0.0
2017-Oct-02 17:43N 33°45' W 118°14'0 0.0
2017-Oct-02 17:13N 33°45' W 118°14'0 0.0
2017-Oct-02 16:55N 33°45' W 118°14'0 0.0
2017-Oct-02 15:31N 33°45' W 118°14'0 0.0
2017-Oct-02 15:01N 33°45' W 118°14'0 0.0
2017-Oct-02 14:55N 33°45' W 118°14'0 0.0
2017-Oct-02 14:28N 33°45' W 118°14'0 0.0
2017-Oct-02 13:58N 33°45' W 118°14'0 0.0
2017-Oct-02 13:19N 33°45' W 118°14'0 0.0
2017-Oct-02 13:00N 33°45' W 118°14'2 3.4
2017-Oct-02 12:20N 33°44' W 118°12'4 9.4
2017-Oct-02 11:56N 33°40' W 118°11'3 7.4
2017-Oct-02 11:30N 33°37' W 118°12'3 6.8
2017-Oct-02 11:00N 33°36' W 118°16'5 9.1
2017-Oct-02 10:30N 33°36' W 118°21'4 8.1
2017-Oct-02 10:00N 33°38' W 118°25'5 9.7
2017-Oct-02 09:30N 33°41' W 118°30'611.4
2017-Oct-02 09:00N 33°43' W 118°36'611.6
2017-Oct-02 08:30N 33°46' W 118°42'611.8
2017-Oct-02 08:00N 33°49' W 118°49'611.7
2017-Oct-02 07:30N 33°52' W 118°55'611.8
2017-Oct-02 07:00N 33°55' W 119°01'612.0
2017-Oct-02 06:30N 33°58' W 119°07'611.8
2017-Oct-02 06:00N 34°01' W 119°13'5 9.9
2017-Oct-02 05:30N 34°03' W 119°19'5 9.8
2017-Oct-02 05:00N 34°04' W 119°24'510.2
2017-Oct-02 04:30N 34°06' W 119°30'5 9.8
2017-Oct-02 04:00N 34°07' W 119°36'510.1
2017-Oct-02 03:30N 34°08' W 119°42'510.1
2017-Oct-02 02:58N 34°10' W 119°48'510.1
2017-Oct-02 02:30N 34°11' W 119°54'610.0
2017-Oct-02 01:57N 34°13' W 120°00'510.0
2017-Oct-02 01:28N 34°14' W 120°06'510.0
2017-Oct-02 00:56N 34°15' W 120°12'5 9.6
2017-Oct-02 00:23N 34°16' W 120°18'5 9.8
2017-Oct-01 23:54N 34°18' W 120°24'410.1
2017-Oct-01 23:30N 34°19' W 120°28'710.0
2017-Oct-01 22:51N 34°20' W 120°36'3 9.9
2017-Oct-01 22:30N 34°21' W 120°40'5 9.9
2017-Oct-01 21:59N 34°23' W 120°46'6 9.8
2017-Oct-01 21:23N 34°25' W 120°53'410.6
2017-Oct-01 21:00N 34°27' W 120°56'611.8
2017-Oct-01 20:28N 34°33' W 121°01'511.5
2017-Oct-01 20:00N 34°37' W 121°04'611.4
2017-Oct-01 19:30N 34°42' W 121°08'611.0
2017-Oct-01 19:00N 34°46' W 121°11'510.6
2017-Oct-01 18:30N 34°51' W 121°15'510.7
2017-Oct-01 18:00N 34°56' W 121°18'510.6
2017-Oct-01 17:30N 35°00' W 121°21'510.9
2017-Oct-01 17:00N 35°05' W 121°25'611.1
2017-Oct-01 16:30N 35°09' W 121°29'611.9
2017-Oct-01 16:00N 35°14' W 121°33'611.9
2017-Oct-01 15:30N 35°19' W 121°37'611.6
2017-Oct-01 15:00N 35°24' W 121°41'611.5
2017-Oct-01 14:30N 35°29' W 121°45'611.6
2017-Oct-01 14:00N 35°34' W 121°48'1511.8
2017-Oct-01 12:47N 35°46' W 121°58'311.9
2017-Oct-01 12:30N 35°49' W 122°00'611.9
2017-Oct-01 12:00N 35°54' W 122°04'612.0
2017-Oct-01 11:30N 35°59' W 122°08'611.9
2017-Oct-01 11:00N 36°04' W 122°12'612.0
2017-Oct-01 10:30N 36°09' W 122°16'611.8
2017-Oct-01 10:00N 36°14' W 122°21'611.9
2017-Oct-01 09:30N 36°19' W 122°25'611.7
2017-Oct-01 08:58N 36°24' W 122°29'511.8
2017-Oct-01 08:30N 36°29' W 122°33'711.8
2017-Oct-01 07:57N 36°34' W 122°37'511.4
2017-Oct-01 07:30N 36°39' W 122°39'611.3
2017-Oct-01 06:59N 36°45' W 122°40'511.3
2017-Oct-01 06:30N 36°50' W 122°41'611.5
2017-Oct-01 06:00N 36°56' W 122°41'611.6
2017-Oct-01 05:30N 37°02' W 122°42'611.3
2017-Oct-01 05:00N 37°07' W 122°43'611.2
2017-Oct-01 04:30N 37°13' W 122°43'611.5
2017-Oct-01 04:00N 37°19' W 122°44'5 9.9
2017-Oct-01 03:30N 37°23' W 122°44'5 9.9
2017-Oct-01 03:00N 37°28' W 122°43'43610.3
2017-Sep-29 08:36N 44°31' W 125°03'719.5
2017-Sep-29 08:16N 44°38' W 125°03'519.5
2017-Sep-29 08:00N 44°43' W 125°04'1220.1
2017-Sep-29 07:25N 44°55' W 125°05'819.7
2017-Sep-29 07:00N 45°03' W 125°06'1019.7
2017-Sep-29 06:30N 45°13' W 125°06'1020.0
2017-Sep-29 06:00N 45°23' W 125°07'1020.2
2017-Sep-29 05:30N 45°33' W 125°07'1020.1
2017-Sep-29 05:00N 45°43' W 125°08'1020.0
2017-Sep-29 04:30N 45°53' W 125°09'1019.8
2017-Sep-29 04:00N 46°03' W 125°10'1019.8
2017-Sep-29 03:30N 46°13' W 125°11'1019.7
2017-Sep-29 03:00N 46°23' W 125°12'1019.9
2017-Sep-29 02:30N 46°33' W 125°12'1120.3
2017-Sep-29 01:57N 46°44' W 125°13'920.3
2017-Sep-29 01:30N 46°53' W 125°14'1119.8
2017-Sep-29 00:58N 47°03' W 125°14'919.3
2017-Sep-29 00:30N 47°12' W 125°15'1019.2
2017-Sep-29 00:00N 47°22' W 125°15'917.8
2017-Sep-28 23:30N 47°31' W 125°16'1117.5
2017-Sep-28 22:54N 47°41' W 125°16'917.5
2017-Sep-28 22:24N 47°50' W 125°16'717.4
2017-Sep-28 22:00N 47°57' W 125°16'917.3
2017-Sep-28 21:30N 48°05' W 125°14'917.6
2017-Sep-28 21:00N 48°14' W 125°12'917.7
2017-Sep-28 20:30N 48°23' W 125°08'917.8
2017-Sep-28 20:00N 48°30' W 125°01'918.3
2017-Sep-28 19:30N 48°31' W 124°48'918.8
2017-Sep-28 19:00N 48°28' W 124°34'918.8
2017-Sep-28 18:30N 48°25' W 124°21'918.5
2017-Sep-28 18:00N 48°21' W 124°09'918.4
2017-Sep-28 17:30N 48°18' W 123°56'918.0
2017-Sep-28 17:00N 48°16' W 123°42'917.4
2017-Sep-28 16:30N 48°15' W 123°29'815.9
2017-Sep-28 16:00N 48°08' W 123°23'815.1
2017-Sep-28 15:30N 48°11' W 123°12'919.0
2017-Sep-28 15:00N 48°12' W 122°58'918.6
2017-Sep-28 14:30N 48°10' W 122°44'918.3
2017-Sep-28 14:00N 48°02' W 122°38'918.8
2017-Sep-28 13:30N 47°55' W 122°29'1019.6
2017-Sep-28 13:00N 47°45' W 122°26'816.5
2017-Sep-28 12:30N 47°37' W 122°24'3 5.1
2017-Sep-28 12:00N 47°36' W 122°21'0 0.0
2017-Sep-28 11:30N 47°36' W 122°21'0 0.0
2017-Sep-28 11:00N 47°36' W 122°21'0 0.0
2017-Sep-28 10:30N 47°36' W 122°21'0 0.0
2017-Sep-28 10:00N 47°36' W 122°21'0 0.0
2017-Sep-28 09:30N 47°36' W 122°21'0 0.0
2017-Sep-28 09:00N 47°36' W 122°21'0 0.0
2017-Sep-28 08:30N 47°36' W 122°21'0 0.0
2017-Sep-28 08:00N 47°36' W 122°21'0 0.0
2017-Sep-28 07:30N 47°36' W 122°21'0 0.0
2017-Sep-28 07:00N 47°36' W 122°21'0 0.0
2017-Sep-28 06:30N 47°36' W 122°21'0 0.0
2017-Sep-28 06:00N 47°36' W 122°21'0 0.0
2017-Sep-28 05:30N 47°36' W 122°21'0 0.0
2017-Sep-28 05:00N 47°36' W 122°21'0 0.0
2017-Sep-28 04:30N 47°36' W 122°21'0 0.0
2017-Sep-28 04:00N 47°36' W 122°21'0 0.0
2017-Sep-28 03:30N 47°36' W 122°21'0 0.0
2017-Sep-28 03:00N 47°36' W 122°21'0 0.0
2017-Sep-28 02:29N 47°36' W 122°21'0 0.0
2017-Sep-28 01:59N 47°36' W 122°21'0 0.0
2017-Sep-28 01:29N 47°36' W 122°21'0 0.0
2017-Sep-28 01:00N 47°36' W 122°21'0 0.0
2017-Sep-28 00:30N 47°36' W 122°21'0 0.0
2017-Sep-27 23:59N 47°36' W 122°21'0 0.0
2017-Sep-27 23:29N 47°36' W 122°21'0 0.0
2017-Sep-27 23:00N 47°36' W 122°21'0 0.0
2017-Sep-27 22:30N 47°36' W 122°21'0 0.0
2017-Sep-27 22:00N 47°36' W 122°21'0 0.0
2017-Sep-27 21:30N 47°36' W 122°21'0 0.0
2017-Sep-27 20:59N 47°36' W 122°21'0 0.0
2017-Sep-27 20:29N 47°36' W 122°21'0 0.0
2017-Sep-27 20:00N 47°36' W 122°21'0 0.0
2017-Sep-27 19:30N 47°36' W 122°21'0 0.0
2017-Sep-27 18:59N 47°36' W 122°21'0 0.0
2017-Sep-27 18:29N 47°36' W 122°21'0 0.0
2017-Sep-27 17:59N 47°36' W 122°21'0 0.0
2017-Sep-27 17:29N 47°36' W 122°21'0 0.0
2017-Sep-27 17:00N 47°36' W 122°21'1 2.9
2017-Sep-27 16:30N 47°36' W 122°23'510.5
2017-Sep-27 16:01N 47°40' W 122°28'816.4
2017-Sep-27 15:30N 47°48' W 122°27'918.2
2017-Sep-27 15:00N 47°56' W 122°32'1019.8
2017-Sep-27 14:30N 48°05' W 122°39'1019.9
2017-Sep-27 14:00N 48°11' W 122°51'1020.2
2017-Sep-27 13:30N 48°12' W 123°06'919.1
2017-Sep-27 13:00N 48°11' W 123°20'510.5
2017-Sep-27 12:30N 48°12' W 123°28'816.0
2017-Sep-27 12:00N 48°19' W 123°27'611.8
2017-Sep-27 11:30N 48°23' W 123°20'612.7
2017-Sep-27 11:00N 48°26' W 123°12'510.8
2017-Sep-27 10:30N 48°32' W 123°12'816.3
2017-Sep-27 10:00N 48°40' W 123°15'917.7
2017-Sep-27 09:30N 48°45' W 123°05'816.5
2017-Sep-27 09:00N 48°53' W 123°03'816.1
2017-Sep-27 08:31N 49°00' W 123°10'1 2.2
2017-Sep-27 07:59N 49°01' W 123°09'0 0.0
2017-Sep-27 07:29N 49°01' W 123°09'0 0.0
2017-Sep-27 06:59N 49°01' W 123°09'0 0.0
2017-Sep-27 06:29N 49°01' W 123°09'0 0.0
2017-Sep-27 05:59N 49°01' W 123°09'0 0.0
2017-Sep-27 05:29N 49°01' W 123°09'0 0.0
2017-Sep-27 04:53N 49°01' W 123°09'0 0.0
2017-Sep-27 04:29N 49°01' W 123°09'0 0.0
2017-Sep-27 03:53N 49°01' W 123°09'0 0.0
2017-Sep-27 03:23N 49°01' W 123°09'0 0.0
2017-Sep-27 02:59N 49°01' W 123°09'0 0.0
2017-Sep-27 02:29N 49°01' W 123°09'0 0.0
2017-Sep-27 01:59N 49°01' W 123°09'0 0.0
2017-Sep-27 01:29N 49°01' W 123°09'0 0.0
2017-Sep-27 00:59N 49°01' W 123°09'0 0.0
2017-Sep-27 00:29N 49°01' W 123°09'0 0.0
2017-Sep-26 23:59N 49°01' W 123°09'0 0.0
2017-Sep-26 23:29N 49°01' W 123°09'0 0.0
2017-Sep-26 22:53N 49°01' W 123°09'0 0.0
2017-Sep-26 22:29N 49°01' W 123°09'0 0.0
2017-Sep-26 21:53N 49°01' W 123°09'0 0.0
2017-Sep-26 21:23N 49°01' W 123°09'0 0.0
2017-Sep-26 20:56N 49°01' W 123°09'0 0.0
2017-Sep-26 20:29N 49°01' W 123°09'0 0.0
2017-Sep-26 19:59N 49°01' W 123°09'0 0.0
2017-Sep-26 19:29N 49°01' W 123°09'0 0.0
2017-Sep-26 18:59N 49°01' W 123°09'0 0.0
2017-Sep-26 18:29N 49°01' W 123°09'0 0.0
2017-Sep-26 17:53N 49°01' W 123°09'0 0.0
2017-Sep-26 17:29N 49°01' W 123°09'0 0.0
2017-Sep-26 16:59N 49°01' W 123°09'0 0.0
2017-Sep-26 16:29N 49°01' W 123°09'0 0.0
2017-Sep-26 15:59N 49°01' W 123°09'0 0.0
2017-Sep-26 15:17N 49°01' W 123°09'0 0.0
2017-Sep-26 14:59N 49°01' W 123°09'0 0.0
2017-Sep-26 14:29N 49°01' W 123°09'0 0.0
2017-Sep-26 13:59N 49°01' W 123°09'0 0.0
2017-Sep-26 13:29N 49°01' W 123°09'0 0.0
2017-Sep-26 12:59N 49°01' W 123°09'0 0.0
2017-Sep-26 12:29N 49°01' W 123°09'0 0.0
2017-Sep-26 11:59N 49°01' W 123°09'0 0.0
2017-Sep-26 11:29N 49°01' W 123°09'0 1.0
2017-Sep-26 11:00N 49°01' W 123°09'3 5.3
2017-Sep-26 10:30N 48°58' W 123°09'0 0.2
2017-Sep-26 10:00N 48°58' W 123°08'0 0.4
2017-Sep-26 09:30N 48°58' W 123°09'0 0.7
2017-Sep-26 09:00N 48°58' W 123°09'0 0.4
2017-Sep-26 08:30N 48°58' W 123°10'1 1.9
2017-Sep-26 08:00N 48°58' W 123°09'2 3.4
2017-Sep-26 07:30N 48°56' W 123°07'612.5
2017-Sep-26 07:00N 48°51' W 123°01'713.4
2017-Sep-26 06:30N 48°45' W 123°04'816.6
2017-Sep-26 06:01N 48°41' W 123°15'917.5
2017-Sep-26 05:30N 48°32' W 123°11'816.4
2017-Sep-26 05:00N 48°24' W 123°12'714.2
2017-Sep-26 04:30N 48°22' W 123°22'1 2.4
2017-Sep-26 04:00N 48°21' W 123°23'1 1.7
2017-Sep-26 03:29N 48°21' W 123°22'0 0.0
2017-Sep-26 02:59N 48°21' W 123°22'0 0.0
2017-Sep-26 02:29N 48°21' W 123°22'0 0.0
2017-Sep-26 01:59N 48°21' W 123°22'0 0.0
2017-Sep-26 01:29N 48°21' W 123°22'0 0.1
2017-Sep-26 00:56N 48°21' W 123°22'0 0.0
2017-Sep-26 00:29N 48°21' W 123°22'0 0.1
2017-Sep-25 23:59N 48°21' W 123°22'0 0.0
2017-Sep-25 23:29N 48°21' W 123°22'0 0.1
2017-Sep-25 22:59N 48°21' W 123°22'0 0.0
2017-Sep-25 22:29N 48°21' W 123°22'0 0.0
2017-Sep-25 21:59N 48°21' W 123°22'0 0.1
2017-Sep-25 21:29N 48°21' W 123°22'0 0.0
2017-Sep-25 20:59N 48°21' W 123°22'0 0.0
2017-Sep-25 20:29N 48°21' W 123°22'0 0.0
2017-Sep-25 19:59N 48°21' W 123°22'0 0.0
2017-Sep-25 19:29N 48°21' W 123°22'0 0.0
2017-Sep-25 18:59N 48°21' W 123°22'0 0.3
2017-Sep-25 18:29N 48°21' W 123°21'1 1.8
2017-Sep-25 18:00N 48°21' W 123°20'4 7.0
2017-Sep-25 17:30N 48°19' W 123°25'4 9.0
2017-Sep-25 17:00N 48°15' W 123°28'4 7.8
2017-Sep-25 16:30N 48°13' W 123°33'4 8.0
2017-Sep-25 16:00N 48°13' W 123°39'4 8.1
2017-Sep-25 15:30N 48°13' W 123°45'4 8.3
2017-Sep-25 15:00N 48°13' W 123°52'4 8.3
2017-Sep-25 14:30N 48°14' W 123°58'4 8.3
2017-Sep-25 14:00N 48°16' W 124°03'4 8.4
2017-Sep-25 13:30N 48°17' W 124°09'4 8.5
2017-Sep-25 13:00N 48°19' W 124°15'4 8.5
2017-Sep-25 12:30N 48°21' W 124°20'4 8.4
2017-Sep-25 12:00N 48°23' W 124°26'4 8.7
2017-Sep-25 11:30N 48°25' W 124°32'4 8.2
2017-Sep-25 11:00N 48°27' W 124°37'4 8.2
2017-Sep-25 10:30N 48°28' W 124°43'4 8.3
2017-Sep-25 10:00N 48°29' W 124°49'4 8.2
2017-Sep-25 09:30N 48°29' W 124°56'4 8.1
2017-Sep-25 09:00N 48°27' W 125°01'4 8.7
2017-Sep-25 08:30N 48°23' W 125°04'4 8.1
2017-Sep-25 08:00N 48°20' W 125°07'4 8.0
2017-Sep-25 07:29N 48°16' W 125°07'4 8.2
2017-Sep-25 06:57N 48°11' W 125°09'3 6.6
2017-Sep-25 06:29N 48°08' W 125°10'3 6.2
2017-Sep-25 06:00N 48°05' W 125°12'3 6.3
2017-Sep-25 05:30N 48°02' W 125°13'4 6.4
2017-Sep-25 04:58N 47°59' W 125°14'7 6.6
2017-Sep-25 03:58N 47°53' W 125°18'5 6.6
2017-Sep-25 03:14N 47°48' W 125°17'57 6.7
2017-Sep-24 18:43N 46°51' W 125°13'312.6
2017-Sep-24 18:30N 46°49' W 125°13'813.1
2017-Sep-24 17:52N 46°40' W 125°12'513.2
2017-Sep-24 17:30N 46°36' W 125°12'713.2
2017-Sep-24 17:00N 46°29' W 125°12'816.2
2017-Sep-24 16:30N 46°21' W 125°12'612.5
2017-Sep-24 16:00N 46°15' W 125°12'815.3
2017-Sep-24 15:30N 46°07' W 125°11'815.3
2017-Sep-24 15:00N 45°59' W 125°09'815.3
2017-Sep-24 14:30N 45°52' W 125°09'815.2
2017-Sep-24 14:00N 45°44' W 125°08'815.2
2017-Sep-24 13:30N 45°37' W 125°07'815.2
2017-Sep-24 13:00N 45°29' W 125°06'1115.3
2017-Sep-24 12:18N 45°18' W 125°05'515.4
2017-Sep-24 12:00N 45°14' W 125°04'915.5
2017-Sep-24 11:27N 45°05' W 125°03'1015.3
2017-Sep-24 10:48N 44°55' W 125°04'415.3
2017-Sep-24 10:30N 44°51' W 125°04'815.3
2017-Sep-24 09:59N 44°43' W 125°04'  
Track history (hours):
 
Tides and Currents Weather Stations Pressure Air Temp Water Temp Dewpoint Dewpoint Depression Visibility Wind Speed Wind Dir Waves Ship Positions

MSC Clea

Last reported at 2017-Oct-04 07:21 UTC. Time now 2017-Oct-18 06:07 UTC.
Position N 26°25' W 114°37'.
Warning: this ship's position is 13 days out of date.

Length 300 m; draft 11 m.

Type: Cargo ship. MMSI: 255805930.

Date/timePositionNaut miles runAvg speedWind from/ knotsBaromVisibWave heightAir tempDewpointWater temp
2017-Oct-04 07:21N 26°25' W 114°37'22617.1
2017-Oct-03 18:07N 29°45' W 116°36'14317.5
2017-Oct-03 09:55N 32°02' W 117°24'717.5
2017-Oct-03 09:30N 32°09' W 117°27'917.3
2017-Oct-03 09:00N 32°17' W 117°30'815.8
2017-Oct-03 08:30N 32°25' W 117°33'611.4
2017-Oct-03 08:01N 32°30' W 117°35'713.1
2017-Oct-03 07:30N 32°36' W 117°39'816.7
2017-Oct-03 07:01N 32°43' W 117°44'816.7
2017-Oct-03 06:30N 32°50' W 117°49'816.9
2017-Oct-03 06:01N 32°58' W 117°53'816.3
2017-Oct-03 05:30N 33°05' W 117°57'611.3
2017-Oct-03 05:00N 33°10' W 118°01'611.4
2017-Oct-03 04:30N 33°15' W 118°04'611.4
2017-Oct-03 04:00N 33°20' W 118°07'611.5
2017-Oct-03 03:30N 33°26' W 118°09'611.5
2017-Oct-03 03:00N 33°31' W 118°12'611.0
2017-Oct-03 02:30N 33°36' W 118°13'510.7
2017-Oct-03 02:00N 33°42' W 118°11'3 6.9
2017-Oct-03 01:30N 33°45' W 118°13'1 1.6
2017-Oct-03 01:00N 33°45' W 118°14'0 0.0
2017-Oct-03 00:28N 33°45' W 118°14'0 0.0
2017-Oct-02 23:49N 33°45' W 118°14'0 0.0
2017-Oct-02 22:19N 33°45' W 118°14'0 0.0
2017-Oct-02 21:55N 33°45' W 118°14'0 0.0
2017-Oct-02 21:25N 33°45' W 118°14'0 0.0
2017-Oct-02 20:55N 33°45' W 118°14'0 0.0
2017-Oct-02 20:25N 33°45' W 118°14'0 0.0
2017-Oct-02 19:55N 33°45' W 118°14'0 0.0
2017-Oct-02 19:19N 33°45' W 118°14'0 0.0
2017-Oct-02 18:55N 33°45' W 118°14'0 0.0
2017-Oct-02 18:25N 33°45' W 118°14'0 0.0
2017-Oct-02 17:43N 33°45' W 118°14'0 0.0
2017-Oct-02 17:13N 33°45' W 118°14'0 0.0
2017-Oct-02 16:55N 33°45' W 118°14'0 0.0
2017-Oct-02 15:31N 33°45' W 118°14'0 0.0
2017-Oct-02 15:01N 33°45' W 118°14'0 0.0
2017-Oct-02 14:55N 33°45' W 118°14'0 0.0
2017-Oct-02 14:28N 33°45' W 118°14'0 0.0
2017-Oct-02 13:58N 33°45' W 118°14'0 0.0
2017-Oct-02 13:19N 33°45' W 118°14'0 0.0
2017-Oct-02 13:00N 33°45' W 118°14'2 3.4
2017-Oct-02 12:20N 33°44' W 118°12'4 9.4
2017-Oct-02 11:56N 33°40' W 118°11'3 7.4
2017-Oct-02 11:30N 33°37' W 118°12'3 6.8
2017-Oct-02 11:00N 33°36' W 118°16'5 9.1
2017-Oct-02 10:30N 33°36' W 118°21'4 8.1
2017-Oct-02 10:00N 33°38' W 118°25'5 9.7
2017-Oct-02 09:30N 33°41' W 118°30'611.4
2017-Oct-02 09:00N 33°43' W 118°36'611.6
2017-Oct-02 08:30N 33°46' W 118°42'611.8
2017-Oct-02 08:00N 33°49' W 118°49'611.7
2017-Oct-02 07:30N 33°52' W 118°55'611.8
2017-Oct-02 07:00N 33°55' W 119°01'612.0
2017-Oct-02 06:30N 33°58' W 119°07'611.8
2017-Oct-02 06:00N 34°01' W 119°13'5 9.9
2017-Oct-02 05:30N 34°03' W 119°19'5 9.8
2017-Oct-02 05:00N 34°04' W 119°24'510.2
2017-Oct-02 04:30N 34°06' W 119°30'5 9.8
2017-Oct-02 04:00N 34°07' W 119°36'510.1
2017-Oct-02 03:30N 34°08' W 119°42'510.1
2017-Oct-02 02:58N 34°10' W 119°48'510.1
2017-Oct-02 02:30N 34°11' W 119°54'610.0
2017-Oct-02 01:57N 34°13' W 120°00'510.0
2017-Oct-02 01:28N 34°14' W 120°06'510.0
2017-Oct-02 00:56N 34°15' W 120°12'5 9.6
2017-Oct-02 00:23N 34°16' W 120°18'5 9.8
2017-Oct-01 23:54N 34°18' W 120°24'410.1
2017-Oct-01 23:30N 34°19' W 120°28'710.0
2017-Oct-01 22:51N 34°20' W 120°36'3 9.9
2017-Oct-01 22:30N 34°21' W 120°40'5 9.9
2017-Oct-01 21:59N 34°23' W 120°46'6 9.8
2017-Oct-01 21:23N 34°25' W 120°53'410.6
2017-Oct-01 21:00N 34°27' W 120°56'611.8
2017-Oct-01 20:28N 34°33' W 121°01'511.5
2017-Oct-01 20:00N 34°37' W 121°04'611.4
2017-Oct-01 19:30N 34°42' W 121°08'611.0
2017-Oct-01 19:00N 34°46' W 121°11'510.6
2017-Oct-01 18:30N 34°51' W 121°15'510.7
2017-Oct-01 18:00N 34°56' W 121°18'510.6
2017-Oct-01 17:30N 35°00' W 121°21'510.9
2017-Oct-01 17:00N 35°05' W 121°25'611.1
2017-Oct-01 16:30N 35°09' W 121°29'611.9
2017-Oct-01 16:00N 35°14' W 121°33'611.9
2017-Oct-01 15:30N 35°19' W 121°37'611.6
2017-Oct-01 15:00N 35°24' W 121°41'611.5
2017-Oct-01 14:30N 35°29' W 121°45'611.6
2017-Oct-01 14:00N 35°34' W 121°48'1511.8
2017-Oct-01 12:47N 35°46' W 121°58'311.9
2017-Oct-01 12:30N 35°49' W 122°00'611.9
2017-Oct-01 12:00N 35°54' W 122°04'612.0
2017-Oct-01 11:30N 35°59' W 122°08'611.9
2017-Oct-01 11:00N 36°04' W 122°12'612.0
2017-Oct-01 10:30N 36°09' W 122°16'611.8
2017-Oct-01 10:00N 36°14' W 122°21'611.9
2017-Oct-01 09:30N 36°19' W 122°25'611.7
2017-Oct-01 08:58N 36°24' W 122°29'511.8
2017-Oct-01 08:30N 36°29' W 122°33'711.8
2017-Oct-01 07:57N 36°34' W 122°37'511.4
2017-Oct-01 07:30N 36°39' W 122°39'611.3
2017-Oct-01 06:59N 36°45' W 122°40'511.3
2017-Oct-01 06:30N 36°50' W 122°41'611.5
2017-Oct-01 06:00N 36°56' W 122°41'611.6
2017-Oct-01 05:30N 37°02' W 122°42'611.3
2017-Oct-01 05:00N 37°07' W 122°43'611.2
2017-Oct-01 04:30N 37°13' W 122°43'611.5
2017-Oct-01 04:00N 37°19' W 122°44'5 9.9
2017-Oct-01 03:30N 37°23' W 122°44'5 9.9
2017-Oct-01 03:00N 37°28' W 122°43'43610.3
2017-Sep-29 08:36N 44°31' W 125°03'719.5
2017-Sep-29 08:16N 44°38' W 125°03'519.5
2017-Sep-29 08:00N 44°43' W 125°04'1220.1
2017-Sep-29 07:25N 44°55' W 125°05'819.7
2017-Sep-29 07:00N 45°03' W 125°06'1019.7
2017-Sep-29 06:30N 45°13' W 125°06'1020.0
2017-Sep-29 06:00N 45°23' W 125°07'1020.2
2017-Sep-29 05:30N 45°33' W 125°07'1020.1
2017-Sep-29 05:00N 45°43' W 125°08'1020.0
2017-Sep-29 04:30N 45°53' W 125°09'1019.8
2017-Sep-29 04:00N 46°03' W 125°10'1019.8
2017-Sep-29 03:30N 46°13' W 125°11'1019.7
2017-Sep-29 03:00N 46°23' W 125°12'1019.9
2017-Sep-29 02:30N 46°33' W 125°12'1120.3
2017-Sep-29 01:57N 46°44' W 125°13'920.3
2017-Sep-29 01:30N 46°53' W 125°14'1119.8
2017-Sep-29 00:58N 47°03' W 125°14'919.3
2017-Sep-29 00:30N 47°12' W 125°15'1019.2
2017-Sep-29 00:00N 47°22' W 125°15'917.8
2017-Sep-28 23:30N 47°31' W 125°16'1117.5
2017-Sep-28 22:54N 47°41' W 125°16'917.5
2017-Sep-28 22:24N 47°50' W 125°16'717.4
2017-Sep-28 22:00N 47°57' W 125°16'917.3
2017-Sep-28 21:30N 48°05' W 125°14'917.6
2017-Sep-28 21:00N 48°14' W 125°12'917.7
2017-Sep-28 20:30N 48°23' W 125°08'917.8
2017-Sep-28 20:00N 48°30' W 125°01'918.3
2017-Sep-28 19:30N 48°31' W 124°48'918.8
2017-Sep-28 19:00N 48°28' W 124°34'918.8
2017-Sep-28 18:30N 48°25' W 124°21'918.5
2017-Sep-28 18:00N 48°21' W 124°09'918.4
2017-Sep-28 17:30N 48°18' W 123°56'918.0
2017-Sep-28 17:00N 48°16' W 123°42'917.4
2017-Sep-28 16:30N 48°15' W 123°29'815.9
2017-Sep-28 16:00N 48°08' W 123°23'815.1
2017-Sep-28 15:30N 48°11' W 123°12'919.0
2017-Sep-28 15:00N 48°12' W 122°58'918.6
2017-Sep-28 14:30N 48°10' W 122°44'918.3
2017-Sep-28 14:00N 48°02' W 122°38'918.8
2017-Sep-28 13:30N 47°55' W 122°29'1019.6
2017-Sep-28 13:00N 47°45' W 122°26'816.5
2017-Sep-28 12:30N 47°37' W 122°24'3 5.1
2017-Sep-28 12:00N 47°36' W 122°21'0 0.0
2017-Sep-28 11:30N 47°36' W 122°21'0 0.0
2017-Sep-28 11:00N 47°36' W 122°21'0 0.0
2017-Sep-28 10:30N 47°36' W 122°21'0 0.0
2017-Sep-28 10:00N 47°36' W 122°21'0 0.0
2017-Sep-28 09:30N 47°36' W 122°21'0 0.0
2017-Sep-28 09:00N 47°36' W 122°21'0 0.0
2017-Sep-28 08:30N 47°36' W 122°21'0 0.0
2017-Sep-28 08:00N 47°36' W 122°21'0 0.0
2017-Sep-28 07:30N 47°36' W 122°21'0 0.0
2017-Sep-28 07:00N 47°36' W 122°21'0 0.0
2017-Sep-28 06:30N 47°36' W 122°21'0 0.0
2017-Sep-28 06:00N 47°36' W 122°21'0 0.0
2017-Sep-28 05:30N 47°36' W 122°21'0 0.0
2017-Sep-28 05:00N 47°36' W 122°21'0 0.0
2017-Sep-28 04:30N 47°36' W 122°21'0 0.0
2017-Sep-28 04:00N 47°36' W 122°21'0 0.0
2017-Sep-28 03:30N 47°36' W 122°21'0 0.0
2017-Sep-28 03:00N 47°36' W 122°21'0 0.0
2017-Sep-28 02:29N 47°36' W 122°21'0 0.0
2017-Sep-28 01:59N 47°36' W 122°21'0 0.0
2017-Sep-28 01:29N 47°36' W 122°21'0 0.0
2017-Sep-28 01:00N 47°36' W 122°21'0 0.0
2017-Sep-28 00:30N 47°36' W 122°21'0 0.0
2017-Sep-27 23:59N 47°36' W 122°21'0 0.0
2017-Sep-27 23:29N 47°36' W 122°21'0 0.0
2017-Sep-27 23:00N 47°36' W 122°21'0 0.0
2017-Sep-27 22:30N 47°36' W 122°21'0 0.0
2017-Sep-27 22:00N 47°36' W 122°21'0 0.0
2017-Sep-27 21:30N 47°36' W 122°21'0 0.0
2017-Sep-27 20:59N 47°36' W 122°21'0 0.0
2017-Sep-27 20:29N 47°36' W 122°21'0 0.0
2017-Sep-27 20:00N 47°36' W 122°21'0 0.0
2017-Sep-27 19:30N 47°36' W 122°21'0 0.0
2017-Sep-27 18:59N 47°36' W 122°21'0 0.0
2017-Sep-27 18:29N 47°36' W 122°21'0 0.0
2017-Sep-27 17:59N 47°36' W 122°21'0 0.0
2017-Sep-27 17:29N 47°36' W 122°21'0 0.0
2017-Sep-27 17:00N 47°36' W 122°21'1 2.9
2017-Sep-27 16:30N 47°36' W 122°23'510.5
2017-Sep-27 16:01N 47°40' W 122°28'816.4
2017-Sep-27 15:30N 47°48' W 122°27'918.2
2017-Sep-27 15:00N 47°56' W 122°32'1019.8
2017-Sep-27 14:30N 48°05' W 122°39'1019.9
2017-Sep-27 14:00N 48°11' W 122°51'1020.2
2017-Sep-27 13:30N 48°12' W 123°06'919.1
2017-Sep-27 13:00N 48°11' W 123°20'510.5
2017-Sep-27 12:30N 48°12' W 123°28'816.0
2017-Sep-27 12:00N 48°19' W 123°27'611.8
2017-Sep-27 11:30N 48°23' W 123°20'612.7
2017-Sep-27 11:00N 48°26' W 123°12'510.8
2017-Sep-27 10:30N 48°32' W 123°12'816.3
2017-Sep-27 10:00N 48°40' W 123°15'917.7
2017-Sep-27 09:30N 48°45' W 123°05'816.5
2017-Sep-27 09:00N 48°53' W 123°03'816.1
2017-Sep-27 08:31N 49°00' W 123°10'1 2.2
2017-Sep-27 07:59N 49°01' W 123°09'0 0.0
2017-Sep-27 07:29N 49°01' W 123°09'0 0.0
2017-Sep-27 06:59N 49°01' W 123°09'0 0.0
2017-Sep-27 06:29N 49°01' W 123°09'0 0.0
2017-Sep-27 05:59N 49°01' W 123°09'0 0.0
2017-Sep-27 05:29N 49°01' W 123°09'0 0.0
2017-Sep-27 04:53N 49°01' W 123°09'0 0.0
2017-Sep-27 04:29N 49°01' W 123°09'0 0.0
2017-Sep-27 03:53N 49°01' W 123°09'0 0.0
2017-Sep-27 03:23N 49°01' W 123°09'0 0.0
2017-Sep-27 02:59N 49°01' W 123°09'0 0.0
2017-Sep-27 02:29N 49°01' W 123°09'0 0.0
2017-Sep-27 01:59N 49°01' W 123°09'0 0.0
2017-Sep-27 01:29N 49°01' W 123°09'0 0.0
2017-Sep-27 00:59N 49°01' W 123°09'0 0.0
2017-Sep-27 00:29N 49°01' W 123°09'0 0.0
2017-Sep-26 23:59N 49°01' W 123°09'0 0.0
2017-Sep-26 23:29N 49°01' W 123°09'0 0.0
2017-Sep-26 22:53N 49°01' W 123°09'0 0.0
2017-Sep-26 22:29N 49°01' W 123°09'0 0.0
2017-Sep-26 21:53N 49°01' W 123°09'0 0.0
2017-Sep-26 21:23N 49°01' W 123°09'0 0.0
2017-Sep-26 20:56N 49°01' W 123°09'0 0.0
2017-Sep-26 20:29N 49°01' W 123°09'0 0.0
2017-Sep-26 19:59N 49°01' W 123°09'0 0.0
2017-Sep-26 19:29N 49°01' W 123°09'0 0.0
2017-Sep-26 18:59N 49°01' W 123°09'0 0.0
2017-Sep-26 18:29N 49°01' W 123°09'0 0.0
2017-Sep-26 17:53N 49°01' W 123°09'0 0.0
2017-Sep-26 17:29N 49°01' W 123°09'0 0.0
2017-Sep-26 16:59N 49°01' W 123°09'0 0.0
2017-Sep-26 16:29N 49°01' W 123°09'0 0.0
2017-Sep-26 15:59N 49°01' W 123°09'0 0.0
2017-Sep-26 15:17N 49°01' W 123°09'0 0.0
2017-Sep-26 14:59N 49°01' W 123°09'0 0.0
2017-Sep-26 14:29N 49°01' W 123°09'0 0.0
2017-Sep-26 13:59N 49°01' W 123°09'0 0.0
2017-Sep-26 13:29N 49°01' W 123°09'0 0.0
2017-Sep-26 12:59N 49°01' W 123°09'0 0.0
2017-Sep-26 12:29N 49°01' W 123°09'0 0.0
2017-Sep-26 11:59N 49°01' W 123°09'0 0.0
2017-Sep-26 11:29N 49°01' W 123°09'0 1.0
2017-Sep-26 11:00N 49°01' W 123°09'3 5.3
2017-Sep-26 10:30N 48°58' W 123°09'0 0.2
2017-Sep-26 10:00N 48°58' W 123°08'0 0.4
2017-Sep-26 09:30N 48°58' W 123°09'0 0.7
2017-Sep-26 09:00N 48°58' W 123°09'0 0.4
2017-Sep-26 08:30N 48°58' W 123°10'1 1.9
2017-Sep-26 08:00N 48°58' W 123°09'2 3.4
2017-Sep-26 07:30N 48°56' W 123°07'612.5
2017-Sep-26 07:00N 48°51' W 123°01'713.4
2017-Sep-26 06:30N 48°45' W 123°04'816.6
2017-Sep-26 06:01N 48°41' W 123°15'917.5
2017-Sep-26 05:30N 48°32' W 123°11'816.4
2017-Sep-26 05:00N 48°24' W 123°12'714.2
2017-Sep-26 04:30N 48°22' W 123°22'1 2.4
2017-Sep-26 04:00N 48°21' W 123°23'1 1.7
2017-Sep-26 03:29N 48°21' W 123°22'0 0.0
2017-Sep-26 02:59N 48°21' W 123°22'0 0.0
2017-Sep-26 02:29N 48°21' W 123°22'0 0.0
2017-Sep-26 01:59N 48°21' W 123°22'0 0.0
2017-Sep-26 01:29N 48°21' W 123°22'0 0.1
2017-Sep-26 00:56N 48°21' W 123°22'0 0.0
2017-Sep-26 00:29N 48°21' W 123°22'0 0.1
2017-Sep-25 23:59N 48°21' W 123°22'0 0.0
2017-Sep-25 23:29N 48°21' W 123°22'0 0.1
2017-Sep-25 22:59N 48°21' W 123°22'0 0.0
2017-Sep-25 22:29N 48°21' W 123°22'0 0.0
2017-Sep-25 21:59N 48°21' W 123°22'0 0.1
2017-Sep-25 21:29N 48°21' W 123°22'0 0.0
2017-Sep-25 20:59N 48°21' W 123°22'0 0.0
2017-Sep-25 20:29N 48°21' W 123°22'0 0.0
2017-Sep-25 19:59N 48°21' W 123°22'0 0.0
2017-Sep-25 19:29N 48°21' W 123°22'0 0.0
2017-Sep-25 18:59N 48°21' W 123°22'0 0.3
2017-Sep-25 18:29N 48°21' W 123°21'1 1.8
2017-Sep-25 18:00N 48°21' W 123°20'4 7.0
2017-Sep-25 17:30N 48°19' W 123°25'4 9.0
2017-Sep-25 17:00N 48°15' W 123°28'4 7.8
2017-Sep-25 16:30N 48°13' W 123°33'4 8.0
2017-Sep-25 16:00N 48°13' W 123°39'4 8.1
2017-Sep-25 15:30N 48°13' W 123°45'4 8.3
2017-Sep-25 15:00N 48°13' W 123°52'4 8.3
2017-Sep-25 14:30N 48°14' W 123°58'4 8.3
2017-Sep-25 14:00N 48°16' W 124°03'4 8.4
2017-Sep-25 13:30N 48°17' W 124°09'4 8.5
2017-Sep-25 13:00N 48°19' W 124°15'4 8.5
2017-Sep-25 12:30N 48°21' W 124°20'4 8.4
2017-Sep-25 12:00N 48°23' W 124°26'4 8.7
2017-Sep-25 11:30N 48°25' W 124°32'4 8.2
2017-Sep-25 11:00N 48°27' W 124°37'4 8.2
2017-Sep-25 10:30N 48°28' W 124°43'4 8.3
2017-Sep-25 10:00N 48°29' W 124°49'4 8.2
2017-Sep-25 09:30N 48°29' W 124°56'4 8.1
2017-Sep-25 09:00N 48°27' W 125°01'4 8.7
2017-Sep-25 08:30N 48°23' W 125°04'4 8.1
2017-Sep-25 08:00N 48°20' W 125°07'4 8.0
2017-Sep-25 07:29N 48°16' W 125°07'4 8.2
2017-Sep-25 06:57N 48°11' W 125°09'3 6.6
2017-Sep-25 06:29N 48°08' W 125°10'3 6.2
2017-Sep-25 06:00N 48°05' W 125°12'3 6.3
2017-Sep-25 05:30N 48°02' W 125°13'4 6.4
2017-Sep-25 04:58N 47°59' W 125°14'7 6.6
2017-Sep-25 03:58N 47°53' W 125°18'5 6.6
2017-Sep-25 03:14N 47°48' W 125°17'57 6.7
2017-Sep-24 18:43N 46°51' W 125°13'312.6
2017-Sep-24 18:30N 46°49' W 125°13'813.1
2017-Sep-24 17:52N 46°40' W 125°12'513.2
2017-Sep-24 17:30N 46°36' W 125°12'713.2
2017-Sep-24 17:00N 46°29' W 125°12'816.2
2017-Sep-24 16:30N 46°21' W 125°12'612.5
2017-Sep-24 16:00N 46°15' W 125°12'815.3
2017-Sep-24 15:30N 46°07' W 125°11'815.3
2017-Sep-24 15:00N 45°59' W 125°09'815.3
2017-Sep-24 14:30N 45°52' W 125°09'815.2
2017-Sep-24 14:00N 45°44' W 125°08'815.2
2017-Sep-24 13:30N 45°37' W 125°07'815.2
2017-Sep-24 13:00N 45°29' W 125°06'1115.3
2017-Sep-24 12:18N 45°18' W 125°05'515.4
2017-Sep-24 12:00N 45°14' W 125°04'915.5
2017-Sep-24 11:27N 45°05' W 125°03'1015.3
2017-Sep-24 10:48N 44°55' W 125°04'415.3
2017-Sep-24 10:30N 44°51' W 125°04'815.3
2017-Sep-24 09:59N 44°43' W 125°04'  

Dump ship's entire track history